sensor_id;sensor_type;location;lat;lon;timestamp;temperature;humidity
7588;DHT22;3835;48.850;8.938;2022-10-04T00:02:23;6.80;99.90
7588;DHT22;3835;48.850;8.938;2022-10-04T00:04:57;6.80;99.90
7588;DHT22;3835;48.850;8.938;2022-10-04T00:07:30;6.70;99.90
7588;DHT22;3835;48.850;8.938;2022-10-04T00:10:02;6.70;99.90
7588;DHT22;3835;48.850;8.938;2022-10-04T00:12:33;6.60;99.90
7588;DHT22;3835;48.850;8.938;2022-10-04T00:15:02;6.50;99.90
7588;DHT22;3835;48.850;8.938;2022-10-04T00:17:31;6.50;99.90
7588;DHT22;3835;48.850;8.938;2022-10-04T00:20:02;6.50;99.90
7588;DHT22;3835;48.850;8.938;2022-10-04T00:22:30;6.50;99.90
7588;DHT22;3835;48.850;8.938;2022-10-04T00:25:18;6.50;99.90
7588;DHT22;3835;48.850;8.938;2022-10-04T00:31:05;6.50;99.90
7588;DHT22;3835;48.850;8.938;2022-10-04T00:33:33;6.50;99.90
7588;DHT22;3835;48.850;8.938;2022-10-04T00:36:29;6.60;99.90
7588;DHT22;3835;48.850;8.938;2022-10-04T00:39:22;6.50;99.90
7588;DHT22;3835;48.850;8.938;2022-10-04T00:42:00;6.50;99.90
7588;DHT22;3835;48.850;8.938;2022-10-04T00:44:34;6.50;99.90
7588;DHT22;3835;48.850;8.938;2022-10-04T00:47:11;6.40;99.90
7588;DHT22;3835;48.850;8.938;2022-10-04T00:49:40;6.50;99.90
7588;DHT22;3835;48.850;8.938;2022-10-04T00:52:12;6.40;99.90
7588;DHT22;3835;48.850;8.938;2022-10-04T00:54:44;6.40;99.90
7588;DHT22;3835;48.850;8.938;2022-10-04T00:57:16;6.40;99.90
7588;DHT22;3835;48.850;8.938;2022-10-04T00:59:48;6.40;99.90
7588;DHT22;3835;48.850;8.938;2022-10-04T01:02:18;6.40;99.90
7588;DHT22;3835;48.850;8.938;2022-10-04T01:04:50;6.40;99.90
7588;DHT22;3835;48.850;8.938;2022-10-04T01:07:25;6.30;99.90
7588;DHT22;3835;48.850;8.938;2022-10-04T01:09:55;6.20;99.90
7588;DHT22;3835;48.850;8.938;2022-10-04T01:12:41;6.10;99.90
7588;DHT22;3835;48.850;8.938;2022-10-04T01:15:13;6.10;99.90
7588;DHT22;3835;48.850;8.938;2022-10-04T01:18:11;6.10;99.90
7588;DHT22;3835;48.850;8.938;2022-10-04T01:20:47;6.10;99.90
7588;DHT22;3835;48.850;8.938;2022-10-04T01:26:36;6.00;99.90
7588;DHT22;3835;48.850;8.938;2022-10-04T01:29:07;6.00;99.90
7588;DHT22;3835;48.850;8.938;2022-10-04T01:31:37;6.20;99.90
7588;DHT22;3835;48.850;8.938;2022-10-04T01:34:05;6.10;99.90
7588;DHT22;3835;48.850;8.938;2022-10-04T01:36:33;6.10;99.90
7588;DHT22;3835;48.850;8.938;2022-10-04T01:39:01;6.10;99.90
7588;DHT22;3835;48.850;8.938;2022-10-04T01:41:30;6.00;99.90
7588;DHT22;3835;48.850;8.938;2022-10-04T01:44:05;5.90;99.90
7588;DHT22;3835;48.850;8.938;2022-10-04T01:46:35;6.00;99.90
7588;DHT22;3835;48.850;8.938;2022-10-04T01:49:04;5.90;99.90
7588;DHT22;3835;48.850;8.938;2022-10-04T01:51:37;5.90;99.90
7588;DHT22;3835;48.850;8.938;2022-10-04T01:54:06;6.00;99.90
7588;DHT22;3835;48.850;8.938;2022-10-04T01:56:41;6.00;99.90
7588;DHT22;3835;48.850;8.938;2022-10-04T01:59:15;5.90;99.90
7588;DHT22;3835;48.850;8.938;2022-10-04T02:01:48;5.90;99.90
7588;DHT22;3835;48.850;8.938;2022-10-04T02:04:18;5.90;99.90
7588;DHT22;3835;48.850;8.938;2022-10-04T02:06:49;5.80;99.90
7588;DHT22;3835;48.850;8.938;2022-10-04T02:09:19;5.80;99.90
7588;DHT22;3835;48.850;8.938;2022-10-04T02:11:48;5.90;99.90
7588;DHT22;3835;48.850;8.938;2022-10-04T02:14:22;5.90;99.90
7588;DHT22;3835;48.850;8.938;2022-10-04T02:16:51;5.90;99.90
7588;DHT22;3835;48.850;8.938;2022-10-04T02:19:18;5.90;99.90
7588;DHT22;3835;48.850;8.938;2022-10-04T02:21:46;5.90;99.90
7588;DHT22;3835;48.850;8.938;2022-10-04T02:24:14;6.00;99.90
7588;DHT22;3835;48.850;8.938;2022-10-04T02:26:41;5.90;99.90
7588;DHT22;3835;48.850;8.938;2022-10-04T02:29:08;5.90;99.90
7588;DHT22;3835;48.850;8.938;2022-10-04T02:31:38;5.90;99.90
7588;DHT22;3835;48.850;8.938;2022-10-04T02:34:23;6.00;99.90
7588;DHT22;3835;48.850;8.938;2022-10-04T02:36:50;6.00;99.90
7588;DHT22;3835;48.850;8.938;2022-10-04T02:39:22;6.00;99.90
7588;DHT22;3835;48.850;8.938;2022-10-04T02:41:52;5.90;99.90
7588;DHT22;3835;48.850;8.938;2022-10-04T02:44:25;5.90;99.90
7588;DHT22;3835;48.850;8.938;2022-10-04T02:46:57;5.90;99.90
7588;DHT22;3835;48.850;8.938;2022-10-04T02:49:32;6.00;99.90
7588;DHT22;3835;48.850;8.938;2022-10-04T02:52:02;6.00;99.90
7588;DHT22;3835;48.850;8.938;2022-10-04T02:54:35;6.00;99.90
7588;DHT22;3835;48.850;8.938;2022-10-04T02:57:04;6.00;99.90
7588;DHT22;3835;48.850;8.938;2022-10-04T02:59:31;6.00;99.90
7588;DHT22;3835;48.850;8.938;2022-10-04T03:02:00;6.00;99.90
7588;DHT22;3835;48.850;8.938;2022-10-04T03:04:29;6.00;99.90
7588;DHT22;3835;48.850;8.938;2022-10-04T03:06:59;6.00;99.90
7588;DHT22;3835;48.850;8.938;2022-10-04T03:09:27;6.10;99.90
7588;DHT22;3835;48.850;8.938;2022-10-04T03:11:54;6.10;99.90
7588;DHT22;3835;48.850;8.938;2022-10-04T03:14:23;6.00;99.90
7588;DHT22;3835;48.850;8.938;2022-10-04T03:16:53;6.10;99.90
7588;DHT22;3835;48.850;8.938;2022-10-04T03:19:23;6.00;99.90
7588;DHT22;3835;48.850;8.938;2022-10-04T03:21:55;6.10;99.90
7588;DHT22;3835;48.850;8.938;2022-10-04T03:24:28;6.10;99.90
7588;DHT22;3835;48.850;8.938;2022-10-04T03:26:58;6.10;99.90
7588;DHT22;3835;48.850;8.938;2022-10-04T03:29:27;6.00;99.90
7588;DHT22;3835;48.850;8.938;2022-10-04T03:31:55;6.00;99.90
7588;DHT22;3835;48.850;8.938;2022-10-04T03:34:26;6.00;99.90
7588;DHT22;3835;48.850;8.938;2022-10-04T03:36:55;6.00;99.90
7588;DHT22;3835;48.850;8.938;2022-10-04T03:39:27;6.00;99.90
7588;DHT22;3835;48.850;8.938;2022-10-04T03:41:54;6.00;99.90
7588;DHT22;3835;48.850;8.938;2022-10-04T03:44:23;6.00;99.90
7588;DHT22;3835;48.850;8.938;2022-10-04T03:46:50;5.90;99.90
7588;DHT22;3835;48.850;8.938;2022-10-04T03:49:24;5.90;99.90
7588;DHT22;3835;48.850;8.938;2022-10-04T03:51:55;5.90;99.90
7588;DHT22;3835;48.850;8.938;2022-10-04T03:54:24;5.90;99.90
7588;DHT22;3835;48.850;8.938;2022-10-04T03:56:53;5.90;99.90
7588;DHT22;3835;48.850;8.938;2022-10-04T03:59:22;6.00;99.90
7588;DHT22;3835;48.850;8.938;2022-10-04T04:02:01;6.00;99.90
7588;DHT22;3835;48.850;8.938;2022-10-04T04:04:39;6.00;99.90
7588;DHT22;3835;48.850;8.938;2022-10-04T04:07:11;6.00;99.90
7588;DHT22;3835;48.850;8.938;2022-10-04T04:09:43;6.10;99.90
7588;DHT22;3835;48.850;8.938;2022-10-04T04:12:13;6.00;99.90
7588;DHT22;3835;48.850;8.938;2022-10-04T04:14:42;6.10;99.90
7588;DHT22;3835;48.850;8.938;2022-10-04T04:17:18;6.10;99.90
7588;DHT22;3835;48.850;8.938;2022-10-04T04:19:58;6.20;99.90
7588;DHT22;3835;48.850;8.938;2022-10-04T04:22:26;6.20;99.90
7588;DHT22;3835;48.850;8.938;2022-10-04T04:24:57;6.20;99.90
7588;DHT22;3835;48.850;8.938;2022-10-04T04:27:25;6.20;99.90
7588;DHT22;3835;48.850;8.938;2022-10-04T04:29:54;6.20;99.90
7588;DHT22;3835;48.850;8.938;2022-10-04T04:32:23;6.10;99.90
7588;DHT22;3835;48.850;8.938;2022-10-04T04:34:58;6.10;99.90
7588;DHT22;3835;48.850;8.938;2022-10-04T04:37:25;6.00;99.90
7588;DHT22;3835;48.850;8.938;2022-10-04T04:39:52;6.00;99.90
7588;DHT22;3835;48.850;8.938;2022-10-04T04:42:24;6.00;99.90
7588;DHT22;3835;48.850;8.938;2022-10-04T04:44:54;5.90;99.90
7588;DHT22;3835;48.850;8.938;2022-10-04T04:47:27;6.00;99.90
7588;DHT22;3835;48.850;8.938;2022-10-04T04:50:03;6.00;99.90
7588;DHT22;3835;48.850;8.938;2022-10-04T04:52:31;6.00;99.90
7588;DHT22;3835;48.850;8.938;2022-10-04T04:54:58;6.00;99.90
7588;DHT22;3835;48.850;8.938;2022-10-04T04:57:26;6.00;99.90
7588;DHT22;3835;48.850;8.938;2022-10-04T04:59:57;6.00;99.90
7588;DHT22;3835;48.850;8.938;2022-10-04T05:02:30;6.00;99.90
7588;DHT22;3835;48.850;8.938;2022-10-04T05:05:21;5.90;99.90
7588;DHT22;3835;48.850;8.938;2022-10-04T05:08:01;5.80;99.90
7588;DHT22;3835;48.850;8.938;2022-10-04T05:10:30;5.80;99.90
7588;DHT22;3835;48.850;8.938;2022-10-04T05:12:58;5.70;99.90
7588;DHT22;3835;48.850;8.938;2022-10-04T05:15:26;5.80;99.90
7588;DHT22;3835;48.850;8.938;2022-10-04T05:17:54;5.90;99.90
7588;DHT22;3835;48.850;8.938;2022-10-04T05:20:22;5.90;99.90
7588;DHT22;3835;48.850;8.938;2022-10-04T05:22:49;5.90;99.90
7588;DHT22;3835;48.850;8.938;2022-10-04T05:25:25;5.90;99.90
7588;DHT22;3835;48.850;8.938;2022-10-04T05:27:54;5.90;99.90
7588;DHT22;3835;48.850;8.938;2022-10-04T05:30:45;6.00;99.90
7588;DHT22;3835;48.850;8.938;2022-10-04T05:33:21;6.00;99.90
7588;DHT22;3835;48.850;8.938;2022-10-04T05:36:09;6.00;99.90
7588;DHT22;3835;48.850;8.938;2022-10-04T05:38:47;6.00;99.90
7588;DHT22;3835;48.850;8.938;2022-10-04T05:41:21;6.00;99.90
7588;DHT22;3835;48.850;8.938;2022-10-04T05:43:51;6.00;99.90
7588;DHT22;3835;48.850;8.938;2022-10-04T05:46:22;6.00;99.90
7588;DHT22;3835;48.850;8.938;2022-10-04T05:48:53;6.00;99.90
7588;DHT22;3835;48.850;8.938;2022-10-04T05:51:23;6.00;99.90
7588;DHT22;3835;48.850;8.938;2022-10-04T05:53:51;6.00;99.90
7588;DHT22;3835;48.850;8.938;2022-10-04T05:56:52;6.00;99.90
7588;DHT22;3835;48.850;8.938;2022-10-04T05:59:35;6.00;99.90
7588;DHT22;3835;48.850;8.938;2022-10-04T06:02:13;6.10;99.90
7588;DHT22;3835;48.850;8.938;2022-10-04T06:05:00;6.20;99.90
7588;DHT22;3835;48.850;8.938;2022-10-04T06:07:37;6.20;99.90
7588;DHT22;3835;48.850;8.938;2022-10-04T06:10:23;6.30;99.90
7588;DHT22;3835;48.850;8.938;2022-10-04T06:12:56;6.30;99.90
7588;DHT22;3835;48.850;8.938;2022-10-04T06:18:34;6.40;99.90
7588;DHT22;3835;48.850;8.938;2022-10-04T06:21:20;6.60;99.90
7588;DHT22;3835;48.850;8.938;2022-10-04T06:23:53;6.70;99.90
7588;DHT22;3835;48.850;8.938;2022-10-04T06:26:26;6.80;99.90
7588;DHT22;3835;48.850;8.938;2022-10-04T06:28:56;6.90;99.90
7588;DHT22;3835;48.850;8.938;2022-10-04T06:31:45;7.10;99.90
7588;DHT22;3835;48.850;8.938;2022-10-04T06:37:26;7.20;99.90
7588;DHT22;3835;48.850;8.938;2022-10-04T06:40:08;7.30;99.90
7588;DHT22;3835;48.850;8.938;2022-10-04T06:42:52;7.40;99.90
7588;DHT22;3835;48.850;8.938;2022-10-04T06:45:32;7.60;99.90
7588;DHT22;3835;48.850;8.938;2022-10-04T06:48:15;7.90;99.90
7588;DHT22;3835;48.850;8.938;2022-10-04T06:50:47;8.10;99.90
7588;DHT22;3835;48.850;8.938;2022-10-04T06:53:25;8.20;99.90
7588;DHT22;3835;48.850;8.938;2022-10-04T07:01:59;8.50;99.90
7588;DHT22;3835;48.850;8.938;2022-10-04T07:04:32;8.50;99.90
7588;DHT22;3835;48.850;8.938;2022-10-04T07:07:13;8.60;99.90
7588;DHT22;3835;48.850;8.938;2022-10-04T07:09:54;8.70;99.90
7588;DHT22;3835;48.850;8.938;2022-10-04T07:12:24;8.80;99.90
7588;DHT22;3835;48.850;8.938;2022-10-04T07:14:53;8.90;99.90
7588;DHT22;3835;48.850;8.938;2022-10-04T07:17:28;9.00;99.90
7588;DHT22;3835;48.850;8.938;2022-10-04T07:19:57;9.10;99.90
7588;DHT22;3835;48.850;8.938;2022-10-04T07:22:28;9.20;99.90
7588;DHT22;3835;48.850;8.938;2022-10-04T07:25:06;9.40;99.90
7588;DHT22;3835;48.850;8.938;2022-10-04T07:27:46;9.50;99.90
7588;DHT22;3835;48.850;8.938;2022-10-04T07:30:38;9.70;99.90
7588;DHT22;3835;48.850;8.938;2022-10-04T07:33:08;9.70;99.90
7588;DHT22;3835;48.850;8.938;2022-10-04T07:35:45;9.60;99.90
7588;DHT22;3835;48.850;8.938;2022-10-04T07:38:17;9.70;99.90
7588;DHT22;3835;48.850;8.938;2022-10-04T07:41:02;9.80;99.90
7588;DHT22;3835;48.850;8.938;2022-10-04T07:43:37;9.90;99.90
7588;DHT22;3835;48.850;8.938;2022-10-04T07:46:13;10.10;99.90
7588;DHT22;3835;48.850;8.938;2022-10-04T07:48:43;10.10;99.90
7588;DHT22;3835;48.850;8.938;2022-10-04T07:51:18;10.30;99.90
7588;DHT22;3835;48.850;8.938;2022-10-04T07:53:53;10.50;99.90
7588;DHT22;3835;48.850;8.938;2022-10-04T07:56:25;10.60;99.90
7588;DHT22;3835;48.850;8.938;2022-10-04T07:59:04;10.80;99.90
7588;DHT22;3835;48.850;8.938;2022-10-04T08:01:41;10.80;99.90
7588;DHT22;3835;48.850;8.938;2022-10-04T08:04:23;10.70;99.90
7588;DHT22;3835;48.850;8.938;2022-10-04T08:06:58;10.80;99.90
7588;DHT22;3835;48.850;8.938;2022-10-04T08:09:42;10.70;99.90
7588;DHT22;3835;48.850;8.938;2022-10-04T08:12:18;10.70;99.90
7588;DHT22;3835;48.850;8.938;2022-10-04T08:14:55;10.60;99.90
7588;DHT22;3835;48.850;8.938;2022-10-04T08:17:46;10.60;99.90
7588;DHT22;3835;48.850;8.938;2022-10-04T08:20:30;10.70;99.90
7588;DHT22;3835;48.850;8.938;2022-10-04T08:23:06;10.90;99.90
7588;DHT22;3835;48.850;8.938;2022-10-04T08:25:41;10.90;99.90
7588;DHT22;3835;48.850;8.938;2022-10-04T08:28:18;10.90;99.90
7588;DHT22;3835;48.850;8.938;2022-10-04T08:31:18;11.10;99.90
7588;DHT22;3835;48.850;8.938;2022-10-04T08:33:59;11.00;99.90
7588;DHT22;3835;48.850;8.938;2022-10-04T08:36:41;11.00;99.90
7588;DHT22;3835;48.850;8.938;2022-10-04T08:39:23;11.10;99.90
7588;DHT22;3835;48.850;8.938;2022-10-04T08:42:27;11.30;99.90
7588;DHT22;3835;48.850;8.938;2022-10-04T08:45:30;11.30;99.90
7588;DHT22;3835;48.850;8.938;2022-10-04T08:48:24;11.50;99.90
7588;DHT22;3835;48.850;8.938;2022-10-04T08:57:30;12.20;99.90
7588;DHT22;3835;48.850;8.938;2022-10-04T09:00:19;12.30;99.90
7588;DHT22;3835;48.850;8.938;2022-10-04T09:03:18;12.30;99.90
7588;DHT22;3835;48.850;8.938;2022-10-04T09:09:33;12.30;99.90
7588;DHT22;3835;48.850;8.938;2022-10-04T09:12:13;12.40;99.90
7588;DHT22;3835;48.850;8.938;2022-10-04T09:15:16;12.70;99.90
7588;DHT22;3835;48.850;8.938;2022-10-04T09:17:53;13.00;99.90
7588;DHT22;3835;48.850;8.938;2022-10-04T09:20:23;13.30;99.90
7588;DHT22;3835;48.850;8.938;2022-10-04T09:23:10;13.50;99.90
7588;DHT22;3835;48.850;8.938;2022-10-04T09:25:48;13.60;99.90
7588;DHT22;3835;48.850;8.938;2022-10-04T09:28:32;13.80;99.90
7588;DHT22;3835;48.850;8.938;2022-10-04T09:31:39;13.80;99.90
7588;DHT22;3835;48.850;8.938;2022-10-04T09:34:24;13.70;99.90
7588;DHT22;3835;48.850;8.938;2022-10-04T09:37:12;13.60;99.90
7588;DHT22;3835;48.850;8.938;2022-10-04T09:42:56;13.50;99.90
7588;DHT22;3835;48.850;8.938;2022-10-04T09:45:41;13.40;99.90
7588;DHT22;3835;48.850;8.938;2022-10-04T09:54:12;13.70;99.90
7588;DHT22;3835;48.850;8.938;2022-10-04T09:57:08;13.70;99.90
7588;DHT22;3835;48.850;8.938;2022-10-04T09:59:56;13.80;99.90
7588;DHT22;3835;48.850;8.938;2022-10-04T10:02:41;13.90;99.90
7588;DHT22;3835;48.850;8.938;2022-10-04T10:05:27;13.90;99.90
7588;DHT22;3835;48.850;8.938;2022-10-04T10:07:59;13.80;99.90
7588;DHT22;3835;48.850;8.938;2022-10-04T10:10:38;14.00;99.90
7588;DHT22;3835;48.850;8.938;2022-10-04T10:13:38;14.10;99.90
7588;DHT22;3835;48.850;8.938;2022-10-04T10:16:27;14.20;99.90
7588;DHT22;3835;48.850;8.938;2022-10-04T10:19:15;14.30;99.90
7588;DHT22;3835;48.850;8.938;2022-10-04T10:21:56;14.40;99.90
7588;DHT22;3835;48.850;8.938;2022-10-04T10:27:30;14.70;99.90
7588;DHT22;3835;48.850;8.938;2022-10-04T10:33:06;15.00;99.90
7588;DHT22;3835;48.850;8.938;2022-10-04T10:42:06;15.30;99.90
7588;DHT22;3835;48.850;8.938;2022-10-04T10:44:56;15.40;99.90
7588;DHT22;3835;48.850;8.938;2022-10-04T10:47:37;15.40;99.90
7588;DHT22;3835;48.850;8.938;2022-10-04T10:50:33;15.30;99.90
7588;DHT22;3835;48.850;8.938;2022-10-04T10:53:50;15.30;99.90
7588;DHT22;3835;48.850;8.938;2022-10-04T10:56:34;15.30;99.90
7588;DHT22;3835;48.850;8.938;2022-10-04T11:02:29;15.50;99.90
7588;DHT22;3835;48.850;8.938;2022-10-04T11:05:17;15.70;99.90
7588;DHT22;3835;48.850;8.938;2022-10-04T11:07:52;15.80;99.90
7588;DHT22;3835;48.850;8.938;2022-10-04T11:10:50;15.90;99.90
7588;DHT22;3835;48.850;8.938;2022-10-04T11:20:02;16.30;99.90
7588;DHT22;3835;48.850;8.938;2022-10-04T11:23:17;16.40;99.90
7588;DHT22;3835;48.850;8.938;2022-10-04T11:28:45;16.40;99.90
7588;DHT22;3835;48.850;8.938;2022-10-04T11:31:43;16.30;99.90
7588;DHT22;3835;48.850;8.938;2022-10-04T11:34:50;16.20;99.90
7588;DHT22;3835;48.850;8.938;2022-10-04T11:37:38;16.30;99.90
7588;DHT22;3835;48.850;8.938;2022-10-04T11:40:19;16.40;99.90
7588;DHT22;3835;48.850;8.938;2022-10-04T11:43:05;16.60;99.90
7588;DHT22;3835;48.850;8.938;2022-10-04T11:45:53;16.60;99.90
7588;DHT22;3835;48.850;8.938;2022-10-04T11:48:31;16.60;99.90
7588;DHT22;3835;48.850;8.938;2022-10-04T11:51:15;16.60;99.90
7588;DHT22;3835;48.850;8.938;2022-10-04T11:54:12;16.50;99.90
7588;DHT22;3835;48.850;8.938;2022-10-04T11:57:14;16.60;99.90
7588;DHT22;3835;48.850;8.938;2022-10-04T11:59:56;16.60;99.90
7588;DHT22;3835;48.850;8.938;2022-10-04T12:06:02;16.60;99.90
7588;DHT22;3835;48.850;8.938;2022-10-04T12:08:58;16.80;99.90
7588;DHT22;3835;48.850;8.938;2022-10-04T12:11:58;16.80;99.90
7588;DHT22;3835;48.850;8.938;2022-10-04T12:17:57;16.90;99.90
7588;DHT22;3835;48.850;8.938;2022-10-04T12:23:59;16.90;99.90
7588;DHT22;3835;48.850;8.938;2022-10-04T12:26:48;16.90;99.90
7588;DHT22;3835;48.850;8.938;2022-10-04T12:29:39;16.80;99.90
7588;DHT22;3835;48.850;8.938;2022-10-04T12:32:11;16.80;99.90
7588;DHT22;3835;48.850;8.938;2022-10-04T12:34:46;16.80;99.90
7588;DHT22;3835;48.850;8.938;2022-10-04T12:37:23;16.80;99.90
7588;DHT22;3835;48.850;8.938;2022-10-04T12:40:23;16.90;99.90
7588;DHT22;3835;48.850;8.938;2022-10-04T12:42:59;16.90;99.90
7588;DHT22;3835;48.850;8.938;2022-10-04T12:45:51;17.00;99.90
7588;DHT22;3835;48.850;8.938;2022-10-04T12:48:35;16.90;99.90
7588;DHT22;3835;48.850;8.938;2022-10-04T12:51:17;16.90;99.90
7588;DHT22;3835;48.850;8.938;2022-10-04T12:53:50;16.90;99.90
7588;DHT22;3835;48.850;8.938;2022-10-04T12:56:31;16.90;99.90
7588;DHT22;3835;48.850;8.938;2022-10-04T12:59:16;16.90;99.90
7588;DHT22;3835;48.850;8.938;2022-10-04T13:01:53;16.90;99.90
7588;DHT22;3835;48.850;8.938;2022-10-04T13:04:31;16.70;99.90
7588;DHT22;3835;48.850;8.938;2022-10-04T13:07:12;16.70;99.90
7588;DHT22;3835;48.850;8.938;2022-10-04T13:09:51;16.80;99.90
7588;DHT22;3835;48.850;8.938;2022-10-04T13:12:30;16.90;99.90
7588;DHT22;3835;48.850;8.938;2022-10-04T13:15:08;16.90;99.90
7588;DHT22;3835;48.850;8.938;2022-10-04T13:17:50;16.80;99.90
7588;DHT22;3835;48.850;8.938;2022-10-04T13:20:39;16.80;99.90
7588;DHT22;3835;48.850;8.938;2022-10-04T13:23:19;16.80;99.90
7588;DHT22;3835;48.850;8.938;2022-10-04T13:26:05;16.80;99.90
7588;DHT22;3835;48.850;8.938;2022-10-04T13:28:41;16.70;99.90
7588;DHT22;3835;48.850;8.938;2022-10-04T13:31:15;16.60;99.90
7588;DHT22;3835;48.850;8.938;2022-10-04T13:33:54;16.60;99.90
7588;DHT22;3835;48.850;8.938;2022-10-04T13:36:30;16.60;99.90
7588;DHT22;3835;48.850;8.938;2022-10-04T13:39:23;16.70;99.90
7588;DHT22;3835;48.850;8.938;2022-10-04T13:42:08;16.90;99.90
7588;DHT22;3835;48.850;8.938;2022-10-04T13:44:54;16.80;99.90
7588;DHT22;3835;48.850;8.938;2022-10-04T13:47:45;16.90;99.90
7588;DHT22;3835;48.850;8.938;2022-10-04T13:50:29;16.90;99.90
7588;DHT22;3835;48.850;8.938;2022-10-04T13:53:05;16.90;99.90
7588;DHT22;3835;48.850;8.938;2022-10-04T13:55:58;16.80;99.90
7588;DHT22;3835;48.850;8.938;2022-10-04T13:58:46;16.80;99.90
7588;DHT22;3835;48.850;8.938;2022-10-04T14:04:58;16.70;99.90
7588;DHT22;3835;48.850;8.938;2022-10-04T14:07:44;16.80;99.90
7588;DHT22;3835;48.850;8.938;2022-10-04T14:10:46;16.80;99.90
7588;DHT22;3835;48.850;8.938;2022-10-04T14:13:38;17.00;99.90
7588;DHT22;3835;48.850;8.938;2022-10-04T14:16:54;16.90;99.90
7588;DHT22;3835;48.850;8.938;2022-10-04T14:23:07;16.90;99.90
7588;DHT22;3835;48.850;8.938;2022-10-04T14:25:50;16.90;99.90
7588;DHT22;3835;48.850;8.938;2022-10-04T14:28:48;17.10;99.90
7588;DHT22;3835;48.850;8.938;2022-10-04T14:31:41;17.10;99.90
7588;DHT22;3835;48.850;8.938;2022-10-04T14:37:29;17.20;99.90
7588;DHT22;3835;48.850;8.938;2022-10-04T14:40:14;17.20;99.90
7588;DHT22;3835;48.850;8.938;2022-10-04T14:43:02;17.10;99.90
7588;DHT22;3835;48.850;8.938;2022-10-04T14:45:50;16.80;99.90
7588;DHT22;3835;48.850;8.938;2022-10-04T14:48:35;16.70;99.90
7588;DHT22;3835;48.850;8.938;2022-10-04T14:51:30;16.50;99.90
7588;DHT22;3835;48.850;8.938;2022-10-04T14:54:05;16.30;99.90
7588;DHT22;3835;48.850;8.938;2022-10-04T14:56:42;16.30;99.90
7588;DHT22;3835;48.850;8.938;2022-10-04T14:59:27;16.30;99.90
7588;DHT22;3835;48.850;8.938;2022-10-04T15:02:27;16.30;99.90
7588;DHT22;3835;48.850;8.938;2022-10-04T15:05:11;16.20;99.90
7588;DHT22;3835;48.850;8.938;2022-10-04T15:07:47;16.20;99.90
7588;DHT22;3835;48.850;8.938;2022-10-04T15:10:18;16.30;99.90
7588;DHT22;3835;48.850;8.938;2022-10-04T15:12:59;16.40;99.90
7588;DHT22;3835;48.850;8.938;2022-10-04T15:15:34;16.30;99.90
7588;DHT22;3835;48.850;8.938;2022-10-04T15:18:20;16.40;99.90
7588;DHT22;3835;48.850;8.938;2022-10-04T15:20:53;16.40;99.90
7588;DHT22;3835;48.850;8.938;2022-10-04T15:23:29;16.40;99.90
7588;DHT22;3835;48.850;8.938;2022-10-04T15:26:04;16.40;99.90
7588;DHT22;3835;48.850;8.938;2022-10-04T15:28:59;16.50;99.90
7588;DHT22;3835;48.850;8.938;2022-10-04T15:31:32;16.30;99.90
7588;DHT22;3835;48.850;8.938;2022-10-04T15:34:05;16.20;99.90
7588;DHT22;3835;48.850;8.938;2022-10-04T15:36:48;16.10;99.90
7588;DHT22;3835;48.850;8.938;2022-10-04T15:39:48;16.00;99.90
7588;DHT22;3835;48.850;8.938;2022-10-04T15:42:23;16.20;99.90
7588;DHT22;3835;48.850;8.938;2022-10-04T15:45:18;16.20;99.90
7588;DHT22;3835;48.850;8.938;2022-10-04T15:47:58;16.10;99.90
7588;DHT22;3835;48.850;8.938;2022-10-04T15:50:30;15.90;99.90
7588;DHT22;3835;48.850;8.938;2022-10-04T15:56:09;15.60;99.90
7588;DHT22;3835;48.850;8.938;2022-10-04T16:01:43;15.40;99.90
7588;DHT22;3835;48.850;8.938;2022-10-04T16:04:39;15.30;99.90
7588;DHT22;3835;48.850;8.938;2022-10-04T16:10:16;15.20;99.90
7588;DHT22;3835;48.850;8.938;2022-10-04T16:13:11;15.10;99.90
7588;DHT22;3835;48.850;8.938;2022-10-04T16:19:09;14.90;99.90
7588;DHT22;3835;48.850;8.938;2022-10-04T16:21:47;14.90;99.90
7588;DHT22;3835;48.850;8.938;2022-10-04T16:24:39;14.80;99.90
7588;DHT22;3835;48.850;8.938;2022-10-04T16:27:21;14.70;99.90
7588;DHT22;3835;48.850;8.938;2022-10-04T16:30:01;14.70;99.90
7588;DHT22;3835;48.850;8.938;2022-10-04T16:32:37;14.60;99.90
7588;DHT22;3835;48.850;8.938;2022-10-04T16:35:15;14.50;99.90
7588;DHT22;3835;48.850;8.938;2022-10-04T16:37:55;14.50;99.90
7588;DHT22;3835;48.850;8.938;2022-10-04T16:40:31;14.40;99.90
7588;DHT22;3835;48.850;8.938;2022-10-04T16:43:04;14.30;99.90
7588;DHT22;3835;48.850;8.938;2022-10-04T16:45:44;14.20;99.90
7588;DHT22;3835;48.850;8.938;2022-10-04T16:48:25;14.20;99.90
7588;DHT22;3835;48.850;8.938;2022-10-04T16:51:22;14.20;99.90
7588;DHT22;3835;48.850;8.938;2022-10-04T16:53:54;14.20;99.90
7588;DHT22;3835;48.850;8.938;2022-10-04T16:56:25;14.20;99.90
7588;DHT22;3835;48.850;8.938;2022-10-04T16:58:56;14.10;99.90
7588;DHT22;3835;48.850;8.938;2022-10-04T17:01:49;14.10;99.90
7588;DHT22;3835;48.850;8.938;2022-10-04T17:04:52;14.00;99.90
7588;DHT22;3835;48.850;8.938;2022-10-04T17:07:29;13.80;99.90
7588;DHT22;3835;48.850;8.938;2022-10-04T17:10:15;13.60;99.90
7588;DHT22;3835;48.850;8.938;2022-10-04T17:12:48;13.50;99.90
7588;DHT22;3835;48.850;8.938;2022-10-04T17:15:32;13.30;99.90
7588;DHT22;3835;48.850;8.938;2022-10-04T17:18:14;13.20;99.90
7588;DHT22;3835;48.850;8.938;2022-10-04T17:20:54;13.10;99.90
7588;DHT22;3835;48.850;8.938;2022-10-04T17:23:52;13.00;99.90
7588;DHT22;3835;48.850;8.938;2022-10-04T17:26:35;13.00;99.90
7588;DHT22;3835;48.850;8.938;2022-10-04T17:29:17;12.90;99.90
7588;DHT22;3835;48.850;8.938;2022-10-04T17:31:55;12.70;99.90
7588;DHT22;3835;48.850;8.938;2022-10-04T17:34:33;12.60;99.90
7588;DHT22;3835;48.850;8.938;2022-10-04T17:37:17;12.40;99.90
7588;DHT22;3835;48.850;8.938;2022-10-04T17:39:53;12.30;99.90
7588;DHT22;3835;48.850;8.938;2022-10-04T17:42:32;12.10;99.90
7588;DHT22;3835;48.850;8.938;2022-10-04T17:45:24;12.10;99.90
7588;DHT22;3835;48.850;8.938;2022-10-04T17:47:59;12.00;99.90
7588;DHT22;3835;48.850;8.938;2022-10-04T17:50:49;11.90;99.90
7588;DHT22;3835;48.850;8.938;2022-10-04T17:53:41;12.00;99.90
7588;DHT22;3835;48.850;8.938;2022-10-04T17:56:33;12.10;99.90
7588;DHT22;3835;48.850;8.938;2022-10-04T17:59:07;12.10;99.90
7588;DHT22;3835;48.850;8.938;2022-10-04T18:01:39;12.10;99.90
7588;DHT22;3835;48.850;8.938;2022-10-04T18:04:14;12.10;99.90
7588;DHT22;3835;48.850;8.938;2022-10-04T18:06:48;12.00;99.90
7588;DHT22;3835;48.850;8.938;2022-10-04T18:09:21;12.00;99.90
7588;DHT22;3835;48.850;8.938;2022-10-04T18:11:53;12.00;99.90
7588;DHT22;3835;48.850;8.938;2022-10-04T18:14:43;12.10;99.90
7588;DHT22;3835;48.850;8.938;2022-10-04T18:17:23;12.10;99.90
7588;DHT22;3835;48.850;8.938;2022-10-04T18:19:58;12.00;99.90
7588;DHT22;3835;48.850;8.938;2022-10-04T18:22:26;12.00;99.90
7588;DHT22;3835;48.850;8.938;2022-10-04T18:25:13;12.00;99.90
7588;DHT22;3835;48.850;8.938;2022-10-04T18:27:50;12.10;99.90
7588;DHT22;3835;48.850;8.938;2022-10-04T18:30:18;12.10;99.90
7588;DHT22;3835;48.850;8.938;2022-10-04T18:32:47;12.00;99.90
7588;DHT22;3835;48.850;8.938;2022-10-04T18:35:22;12.10;99.90
7588;DHT22;3835;48.850;8.938;2022-10-04T18:37:52;12.10;99.90
7588;DHT22;3835;48.850;8.938;2022-10-04T18:40:21;12.10;99.90
7588;DHT22;3835;48.850;8.938;2022-10-04T18:42:52;12.10;99.90
7588;DHT22;3835;48.850;8.938;2022-10-04T18:45:23;12.20;99.90
7588;DHT22;3835;48.850;8.938;2022-10-04T18:47:51;12.10;99.90
7588;DHT22;3835;48.850;8.938;2022-10-04T18:50:33;12.10;99.90
7588;DHT22;3835;48.850;8.938;2022-10-04T18:53:25;12.00;99.90
7588;DHT22;3835;48.850;8.938;2022-10-04T18:55:59;11.90;99.90
7588;DHT22;3835;48.850;8.938;2022-10-04T18:58:46;11.80;99.90
7588;DHT22;3835;48.850;8.938;2022-10-04T19:01:48;11.70;99.90